Time;durP1;ratioP1;P1;durP2;ratioP2;P2;SDS_P1;SDS_P2;PMS_P1;PMS_P2;Temp;Humidity;BMP_temperature;BMP_pressure;BME280_temperature;BME280_humidity;BME280_pressure;Samples;Min_cycle;Max_cycle;Signal;HPM_P1;HPM_P2
2024/03/25 00:00:04;;;;;;;1.55;1.10;;;;;;;8.62;72.76;92055.56;521735;28;850;-74
2024/03/25 00:00:20;;;;;;;1.48;0.90;;;;;;;8.62;72.64;92052.09;521872;28;1565;-74
2024/03/25 00:00:36;;;;;;;1.23;0.90;;;;;;;8.59;72.72;92053.97;521720;28;850;-75
2024/03/25 00:00:51;;;;;;;1.35;1.00;;;;;;;8.59;72.72;92051.22;521719;28;804;-75
2024/03/25 00:01:07;;;;;;;1.23;0.90;;;;;;;8.59;72.50;92053.97;521918;28;1081;-75
2024/03/25 00:01:22;;;;;;;1.00;0.88;;;;;;;8.61;72.41;92047.91;521809;28;824;-75
2024/03/25 00:01:38;;;;;;;1.03;0.93;;;;;;;8.63;72.51;92050.81;521647;28;851;-74
2024/03/25 00:01:53;;;;;;;1.10;0.90;;;;;;;8.63;72.18;92054.28;521787;28;830;-74
2024/03/25 00:02:09;;;;;;;1.30;0.90;;;;;;;8.62;72.13;92052.81;521863;28;1016;-75
2024/03/25 00:02:24;;;;;;;0.85;0.85;;;;;;;8.59;71.85;92051.22;521790;28;883;-74
2024/03/25 00:02:40;;;;;;;0.80;0.80;;;;;;;8.61;71.87;92047.91;521738;28;795;-75
2024/03/25 00:02:56;;;;;;;0.90;0.80;;;;;;;8.60;71.62;92044.41;521650;28;942;-74
2024/03/25 00:03:11;;;;;;;0.80;0.70;;;;;;;8.57;71.71;92053.09;521719;28;879;-75
2024/03/25 00:03:27;;;;;;;0.60;0.60;;;;;;;8.58;71.84;92049.03;521731;28;844;-75
2024/03/25 00:03:42;;;;;;;0.80;0.70;;;;;;;8.55;71.94;92050.91;521793;28;1227;-74
2024/03/25 00:03:58;;;;;;;1.13;0.88;;;;;;;8.51;72.00;92047.13;521693;28;839;-75
2024/03/25 00:04:13;;;;;;;1.30;0.90;;;;;;;8.43;72.06;92049.94;521818;28;834;-74
2024/03/25 00:04:28;;;;;;;1.17;0.95;;;;;;;8.44;72.21;92042.44;521738;28;823;-75
2024/03/25 00:04:44;;;;;;;0.90;0.90;;;;;;;8.43;72.21;92041.69;521690;28;819;-75
2024/03/25 00:04:59;;;;;;;1.10;1.00;;;;;;;8.41;72.29;92049.78;521743;28;910;-74
2024/03/25 00:05:17;;;;;;;1.27;1.10;;;;;;;8.40;72.44;92038.06;521829;28;804;-75
2024/03/25 00:05:32;;;;;;;1.00;0.90;;;;;;;8.36;72.37;92042.50;521706;28;933;-74
2024/03/25 00:05:48;;;;;;;1.00;0.90;;;;;;;8.31;72.64;92040.75;521677;28;831;-75
2024/03/25 00:06:04;;;;;;;1.13;1.02;;;;;;;8.28;72.62;92041.88;521788;28;810;-74
2024/03/25 00:06:19;;;;;;;0.80;0.80;;;;;;;8.11;72.88;92036.38;521761;28;831;-75
2024/03/25 00:06:35;;;;;;;0.60;0.60;;;;;;;8.04;73.07;92034.41;521859;28;761;-75
2024/03/25 00:06:51;;;;;;;0.65;0.57;;;;;;;8.03;72.93;92036.47;521927;28;925;-75
2024/03/25 00:07:06;;;;;;;1.10;0.70;;;;;;;8.01;72.82;92036.28;521660;28;899;-74
2024/03/25 00:07:22;;;;;;;0.95;0.75;;;;;;;8.03;72.68;92038.47;521755;28;863;-74
2024/03/25 00:07:38;;;;;;;0.70;0.70;;;;;;;8.06;72.88;92043.56;521743;28;788;-74
2024/03/25 00:07:54;;;;;;;0.60;0.60;;;;;;;8.04;72.85;92037.91;521750;28;1192;-74
2024/03/25 00:08:09;;;;;;;0.77;0.70;;;;;;;8.11;72.77;92045.34;521790;28;938;-75
2024/03/25 00:08:25;;;;;;;0.70;0.70;;;;;;;8.10;72.92;92043.88;521761;28;1087;-74
2024/03/25 00:08:40;;;;;;;0.70;0.70;;;;;;;8.07;72.96;92039.53;521796;28;803;-74
2024/03/25 00:08:56;;;;;;;0.82;0.73;;;;;;;8.09;73.01;92044.44;521788;28;899;-74
2024/03/25 00:09:13;;;;;;;1.00;0.77;;;;;;;8.08;72.87;92042.97;521854;28;827;-74
2024/03/25 00:09:29;;;;;;;0.85;0.70;;;;;;;8.07;72.89;92042.28;521760;28;934;-74
2024/03/25 00:09:44;;;;;;;1.02;0.90;;;;;;;8.10;72.69;92045.91;521724;28;905;-74
2024/03/25 00:10:00;;;;;;;1.10;1.00;;;;;;;8.11;72.60;92041.88;521779;28;828;-74
2024/03/25 00:10:15;;;;;;;1.07;1.00;;;;;;;8.10;72.92;92041.13;521948;28;943;-74
2024/03/25 00:10:31;;;;;;;0.82;0.82;;;;;;;8.10;72.78;92041.13;521915;28;788;-74
2024/03/25 00:10:46;;;;;;;0.80;0.80;;;;;;;8.13;72.60;92042.03;521914;28;792;-74
2024/03/25 00:11:02;;;;;;;0.90;0.90;;;;;;;8.13;72.72;92037.25;521928;28;891;-74
2024/03/25 00:11:17;;;;;;;0.90;0.90;;;;;;;8.14;72.69;92033.19;521907;28;819;-74
2024/03/25 00:11:32;;;;;;;0.85;0.80;;;;;;;8.12;72.55;92041.28;521858;28;898;-74
2024/03/25 00:11:48;;;;;;;1.00;0.80;;;;;;;8.11;72.56;92044.63;521944;28;780;-74
2024/03/25 00:12:04;;;;;;;1.07;0.90;;;;;;;8.11;72.45;92039.84;521909;28;757;-73
2024/03/25 00:12:19;;;;;;;0.77;0.77;;;;;;;8.08;72.50;92040.97;521979;28;926;-74
2024/03/25 00:12:35;;;;;;;0.82;0.70;;;;;;;8.06;72.49;92040.06;521799;28;935;-74
2024/03/25 00:12:54;;;;;;;1.05;0.70;;;;;;;8.00;72.62;92043.06;521882;28;812;-74
2024/03/25 00:13:10;;;;;;;0.70;0.70;;;;;;;7.97;72.50;92035.25;521830;28;934;-75
2024/03/25 00:13:25;;;;;;;0.68;0.68;;;;;;;7.99;72.46;92040.91;521884;28;879;-74
2024/03/25 00:13:41;;;;;;;0.70;0.70;;;;;;;8.02;72.57;92037.75;521894;28;903;-74
2024/03/25 00:13:56;;;;;;;0.70;0.70;;;;;;;8.05;72.43;92036.63;521848;28;816;-74
2024/03/25 00:14:12;;;;;;;0.73;0.73;;;;;;;8.06;72.50;92032.56;521823;28;768;-74
2024/03/25 00:14:27;;;;;;;0.77;0.70;;;;;;;8.04;72.57;92037.16;521929;28;760;-74
2024/03/25 00:14:43;;;;;;;0.70;0.70;;;;;;;8.03;72.75;92039.22;521761;28;855;-74
2024/03/25 00:14:59;;;;;;;0.80;0.70;;;;;;;8.00;72.79;92031.34;521967;28;890;-74
2024/03/25 00:15:15;;;;;;;0.80;0.73;;;;;;;8.03;72.73;92036.47;521870;28;777;-74
2024/03/25 00:15:30;;;;;;;0.73;0.70;;;;;;;8.00;72.67;92034.84;521758;28;946;-74
2024/03/25 00:15:46;;;;;;;1.00;0.75;;;;;;;7.86;72.71;92011.69;521867;28;797;-74
2024/03/25 00:16:01;;;;;;;0.83;0.67;;;;;;;7.98;72.60;92037.41;521961;28;792;-74
2024/03/25 00:16:17;;;;;;;0.60;0.60;;;;;;;7.98;72.56;92040.16;521903;28;805;-74
2024/03/25 00:16:32;;;;;;;0.60;0.60;;;;;;;7.99;72.54;92038.16;521906;28;914;-74
2024/03/25 00:16:48;;;;;;;0.90;0.80;;;;;;;8.02;72.57;92039.75;521772;28;855;-74
2024/03/25 00:17:04;;;;;;;1.10;0.80;;;;;;;8.05;72.51;92035.88;521956;28;875;-74
2024/03/25 00:17:19;;;;;;;0.68;0.68;;;;;;;8.07;72.48;92036.78;521998;28;836;-74
2024/03/25 00:17:35;;;;;;;0.70;0.70;;;;;;;8.11;72.41;92039.13;521770;28;858;-74
2024/03/25 00:17:51;;;;;;;0.77;0.65;;;;;;;8.14;72.36;92038.00;521889;28;796;-74
2024/03/25 00:18:06;;;;;;;0.82;0.70;;;;;;;8.16;72.44;92043.66;521859;28;1631;-74
2024/03/25 00:18:22;;;;;;;0.90;0.70;;;;;;;8.17;72.29;92045.09;521829;28;784;-74
2024/03/25 00:18:37;;;;;;;0.87;0.60;;;;;;;8.16;72.24;92046.41;521867;28;836;-74
2024/03/25 00:18:53;;;;;;;0.63;0.63;;;;;;;8.15;72.42;92042.91;521872;28;836;-74
2024/03/25 00:19:08;;;;;;;0.60;0.60;;;;;;;8.15;72.61;92051.16;521911;28;757;-74
2024/03/25 00:19:24;;;;;;;0.70;0.70;;;;;;;8.15;72.66;92047.69;521930;28;804;-74
2024/03/25 00:19:39;;;;;;;0.60;0.60;;;;;;;8.18;72.53;92052.78;521783;28;753;-74
2024/03/25 00:19:55;;;;;;;0.60;0.60;;;;;;;8.16;72.85;92057.38;521916;28;860;-74
2024/03/25 00:20:10;;;;;;;1.10;0.80;;;;;;;8.13;73.04;92064.00;521990;28;1044;-74
2024/03/25 00:20:26;;;;;;;0.95;0.82;;;;;;;8.12;73.21;92060.53;521952;28;813;-74
2024/03/25 00:20:41;;;;;;;0.60;0.60;;;;;;;8.00;73.06;92047.84;521939;28;907;-74
2024/03/25 00:20:57;;;;;;;0.60;0.60;;;;;;;8.16;72.96;92057.38;521801;28;757;-74
2024/03/25 00:21:13;;;;;;;1.40;0.60;;;;;;;8.13;73.24;92062.00;521898;28;906;-74
2024/03/25 00:21:28;;;;;;;1.55;0.70;;;;;;;8.17;73.21;92067.81;521950;28;914;-74
2024/03/25 00:21:44;;;;;;;0.70;0.70;;;;;;;8.13;73.41;92069.50;521833;28;867;-74
2024/03/25 00:21:59;;;;;;;0.63;0.63;;;;;;;8.11;73.53;92070.09;521902;28;839;-74
2024/03/25 00:22:15;;;;;;;0.70;0.70;;;;;;;8.13;73.42;92080.50;521932;28;847;-74
2024/03/25 00:22:30;;;;;;;0.70;0.70;;;;;;;8.13;73.28;92080.50;521936;28;757;-74
2024/03/25 00:22:46;;;;;;;0.70;0.70;;;;;;;8.10;73.25;92082.38;521773;28;1914;-74
2024/03/25 00:23:01;;;;;;;0.80;0.68;;;;;;;8.10;73.03;92085.09;521848;28;839;-74
2024/03/25 00:23:17;;;;;;;0.60;0.60;;;;;;;8.10;72.97;92084.41;521854;28;848;-74
2024/03/25 00:23:32;;;;;;;0.95;0.60;;;;;;;8.09;72.87;92080.91;521846;28;855;-74
2024/03/25 00:23:47;;;;;;;0.97;0.70;;;;;;;8.08;72.63;92084.94;521801;28;889;-74
2024/03/25 00:24:03;;;;;;;0.77;0.77;;;;;;;8.02;72.48;92076.22;521898;28;879;-74
2024/03/25 00:24:19;;;;;;;0.80;0.80;;;;;;;8.10;72.65;92087.16;521855;28;848;-74
2024/03/25 00:24:34;;;;;;;0.80;0.80;;;;;;;8.07;72.54;92077.28;521741;28;780;-74
2024/03/25 00:24:50;;;;;;;0.80;0.80;;;;;;;8.05;72.72;92088.09;521837;28;1076;-74
2024/03/25 00:25:06;;;;;;;0.70;0.70;;;;;;;8.07;72.83;92080.03;521885;28;903;-74
2024/03/25 00:25:21;;;;;;;0.80;0.80;;;;;;;8.09;72.91;92082.94;521956;28;871;-74
2024/03/25 00:25:36;;;;;;;0.80;0.80;;;;;;;8.10;72.66;92081.66;521744;28;876;-74
2024/03/25 00:25:52;;;;;;;0.70;0.70;;;;;;;8.10;72.76;92081.66;521784;28;816;-75
2024/03/25 00:26:07;;;;;;;0.63;0.60;;;;;;;8.11;72.68;92080.34;521844;28;836;-74
2024/03/25 00:26:23;;;;;;;0.80;0.60;;;;;;;8.01;72.39;92090.53;521681;28;752;-74
2024/03/25 00:26:39;;;;;;;0.80;0.60;;;;;;;7.93;72.63;92084.38;521698;28;823;-74
2024/03/25 00:26:54;;;;;;;0.68;0.68;;;;;;;7.94;72.77;92086.56;521721;28;823;-74
2024/03/25 00:27:10;;;;;;;0.67;0.67;;;;;;;7.95;72.93;92082.50;521775;28;780;-74
2024/03/25 00:27:25;;;;;;;0.70;0.70;;;;;;;7.95;72.89;92088.00;521808;28;805;-73
2024/03/25 00:27:40;;;;;;;0.73;0.73;;;;;;;7.93;72.68;92090.59;521809;28;867;-73
2024/03/25 00:27:57;;;;;;;0.70;0.60;;;;;;;7.94;72.59;92085.84;521829;28;907;-73
2024/03/25 00:28:13;;;;;;;0.70;0.60;;;;;;;7.95;72.46;92085.25;521948;28;810;-73
2024/03/25 00:28:28;;;;;;;0.60;0.60;;;;;;;7.97;72.52;92087.47;521850;28;832;-73
2024/03/25 00:28:44;;;;;;;0.50;0.50;;;;;;;7.93;72.42;92090.59;521800;28;832;-73
2024/03/25 00:28:59;;;;;;;0.50;0.50;;;;;;;7.95;72.49;92088.00;521961;28;845;-73
2024/03/25 00:29:14;;;;;;;0.50;0.50;;;;;;;7.96;72.54;92088.75;521746;28;824;-73
2024/03/25 00:29:30;;;;;;;0.50;0.50;;;;;;;7.97;72.70;92090.22;521905;28;793;-73
2024/03/25 00:29:45;;;;;;;0.50;0.50;;;;;;;7.93;73.21;92095.34;521720;28;883;-73
2024/03/25 00:30:01;;;;;;;0.60;0.60;;;;;;;7.94;72.88;92092.06;521915;28;792;-73
2024/03/25 00:30:16;;;;;;;0.82;0.73;;;;;;;7.96;72.92;92094.25;521869;28;851;-73
2024/03/25 00:30:32;;;;;;;0.70;0.70;;;;;;;7.95;73.03;92095.56;521846;28;792;-73
2024/03/25 00:30:47;;;;;;;0.63;0.63;;;;;;;7.95;73.13;92103.78;521871;28;860;-74
2024/03/25 00:31:03;;;;;;;0.60;0.60;;;;;;;7.96;73.17;92105.97;521956;28;852;-74
2024/03/25 00:31:19;;;;;;;0.60;0.60;;;;;;;7.93;73.16;92100.84;521884;28;879;-74
2024/03/25 00:31:35;;;;;;;0.68;0.68;;;;;;;7.90;73.46;92096.50;521848;28;993;-73
2024/03/25 00:31:50;;;;;;;0.60;0.60;;;;;;;7.87;73.23;92103.13;521864;28;757;-74
2024/03/25 00:32:06;;;;;;;0.50;0.50;;;;;;;7.80;73.14;92096.41;521815;28;784;-74
2024/03/25 00:32:22;;;;;;;0.50;0.50;;;;;;;7.85;72.93;92102.94;523738;28;895;-74
2024/03/25 00:32:37;;;;;;;0.57;0.57;;;;;;;7.82;72.55;92104.09;521574;28;1309;-74
2024/03/25 00:32:52;;;;;;;0.50;0.50;;;;;;;7.80;72.67;92106.66;521692;28;831;-74
2024/03/25 00:33:08;;;;;;;0.50;0.50;;;;;;;7.79;72.66;92105.22;521782;28;765;-74
2024/03/25 00:33:24;;;;;;;0.45;0.45;;;;;;;7.73;72.40;92102.72;521666;28;850;-74
2024/03/25 00:33:39;;;;;;;0.40;0.40;;;;;;;7.73;72.43;92105.47;521635;28;963;-74
2024/03/25 00:33:55;;;;;;;0.60;0.60;;;;;;;7.74;72.33;92095.91;521686;28;1631;-74
2024/03/25 00:34:10;;;;;;;0.60;0.60;;;;;;;7.71;72.33;92107.31;521783;28;1118;-74
2024/03/25 00:34:26;;;;;;;0.50;0.50;;;;;;;7.64;72.26;92098.53;521723;28;835;-74
2024/03/25 00:34:41;;;;;;;0.50;0.50;;;;;;;7.66;72.29;92106.25;521687;28;847;-74
2024/03/25 00:34:57;;;;;;;0.50;0.50;;;;;;;7.60;72.32;92103.72;521833;28;781;-74
2024/03/25 00:35:12;;;;;;;0.50;0.50;;;;;;;7.60;72.53;92106.47;521896;28;916;-74
2024/03/25 00:35:28;;;;;;;0.40;0.40;;;;;;;7.61;72.42;92104.44;521913;28;824;-74
2024/03/25 00:35:45;;;;;;;0.33;0.33;;;;;;;7.63;72.34;92102.59;521839;28;831;-73
2024/03/25 00:36:01;;;;;;;0.40;0.40;;;;;;;7.63;72.43;92101.88;521890;28;941;-73
2024/03/25 00:36:17;;;;;;;0.40;0.40;;;;;;;7.62;72.30;92106.63;521653;28;860;-73
2024/03/25 00:36:33;;;;;;;0.50;0.50;;;;;;;7.59;72.51;92094.03;521681;28;906;-73
2024/03/25 00:36:49;;;;;;;0.43;0.43;;;;;;;7.52;72.90;92108.53;521693;28;882;-74
2024/03/25 00:37:04;;;;;;;0.50;0.40;;;;;;;7.52;72.98;92105.78;521760;28;835;-74
2024/03/25 00:37:20;;;;;;;1.42;0.50;;;;;;;7.53;73.19;92106.53;521670;28;808;-74
2024/03/25 00:37:35;;;;;;;1.17;0.60;;;;;;;7.48;73.30;92102.72;521642;28;852;-74
2024/03/25 00:37:51;;;;;;;0.50;0.50;;;;;;;7.48;73.13;92102.72;521721;28;848;-74
2024/03/25 00:38:07;;;;;;;0.50;0.50;;;;;;;7.46;73.27;92107.31;521809;28;860;-73
2024/03/25 00:38:23;;;;;;;0.50;0.50;;;;;;;7.48;73.09;92102.72;521860;28;854;-73
2024/03/25 00:38:39;;;;;;;0.50;0.50;;;;;;;7.49;73.43;92106.91;521884;28;906;-73
2024/03/25 00:38:55;;;;;;;0.50;0.50;;;;;;;7.50;73.13;92113.88;521773;28;890;-74
2024/03/25 00:39:10;;;;;;;0.40;0.40;;;;;;;7.43;73.48;92103.66;521882;28;767;-74
2024/03/25 00:39:26;;;;;;;0.40;0.40;;;;;;;7.44;73.52;92107.88;521647;28;804;-74
2024/03/25 00:39:42;;;;;;;0.32;0.32;;;;;;;7.42;73.38;92110.47;521665;28;914;-73
2024/03/25 00:39:57;;;;;;;0.30;0.30;;;;;;;7.43;73.29;92114.66;521729;28;879;-73
2024/03/25 00:40:13;;;;;;;0.32;0.32;;;;;;;7.39;73.40;92108.09;521713;28;803;-73
2024/03/25 00:40:28;;;;;;;0.50;0.50;;;;;;;7.34;73.50;92114.56;521545;28;1037;-74
2024/03/25 00:40:44;;;;;;;0.55;0.55;;;;;;;7.25;73.68;92110.41;521629;28;832;-73
2024/03/25 00:40:59;;;;;;;0.50;0.50;;;;;;;7.22;73.81;92106.03;521549;28;1575;-73
2024/03/25 00:41:15;;;;;;;0.50;0.50;;;;;;;7.27;73.74;92104.34;522094;28;852;-73
2024/03/25 00:41:30;;;;;;;0.50;0.50;;;;;;;7.25;73.81;92109.66;523761;28;964;-73
2024/03/25 00:41:45;;;;;;;0.93;0.60;;;;;;;7.21;74.05;92106.59;523351;28;859;-73
2024/03/25 00:42:01;;;;;;;0.90;0.60;;;;;;;7.18;74.12;92105.69;521844;28;909;-73
2024/03/25 00:42:16;;;;;;;0.50;0.50;;;;;;;7.13;74.13;92103.88;521881;28;836;-73
2024/03/25 00:42:32;;;;;;;0.50;0.50;;;;;;;7.12;74.39;92105.19;521818;28;811;-73
2024/03/25 00:42:48;;;;;;;0.60;0.60;;;;;;;7.08;74.45;92104.81;521834;28;1918;-73
2024/03/25 00:43:03;;;;;;;0.50;0.50;;;;;;;7.08;74.05;92096.59;521748;28;844;-73
2024/03/25 00:43:19;;;;;;;0.40;0.40;;;;;;;7.09;74.25;92097.31;521846;28;820;-73
2024/03/25 00:43:35;;;;;;;0.40;0.40;;;;;;;7.08;74.65;92102.06;521753;28;820;-73
2024/03/25 00:43:50;;;;;;;0.50;0.47;;;;;;;7.07;74.56;92097.88;521893;28;757;-73
2024/03/25 00:44:06;;;;;;;0.57;0.50;;;;;;;7.08;74.42;92098.63;521822;28;1061;-74
2024/03/25 00:44:21;;;;;;;0.70;0.60;;;;;;;7.07;74.70;92100.63;521889;28;911;-73
2024/03/25 00:44:37;;;;;;;0.70;0.70;;;;;;;7.06;74.69;92103.94;521779;28;828;-73
2024/03/25 00:44:52;;;;;;;0.60;0.60;;;;;;;7.03;74.75;92094.81;521706;28;788;-73
2024/03/25 00:45:08;;;;;;;0.60;0.60;;;;;;;7.02;74.78;92098.81;521818;28;741;-73
2024/03/25 00:45:30;;;;;;;0.65;0.65;;;;;;;7.04;74.80;92103.78;521865;28;824;-73
2024/03/25 00:45:46;;;;;;;0.70;0.63;;;;;;;7.07;74.75;92099.91;521799;28;1079;-73
2024/03/25 00:46:01;;;;;;;0.70;0.60;;;;;;;7.08;74.67;92098.63;521803;28;918;-73
2024/03/25 00:46:17;;;;;;;0.60;0.60;;;;;;;7.08;74.72;92096.59;521827;28;852;-73
2024/03/25 00:46:32;;;;;;;0.50;0.50;;;;;;;7.10;74.80;92099.53;521669;28;742;-73
2024/03/25 00:46:48;;;;;;;0.50;0.50;;;;;;;7.14;74.68;92101.88;521593;28;749;-73
2024/03/25 00:47:03;;;;;;;0.50;0.50;;;;;;;7.15;74.54;92095.81;521485;28;776;-73
2024/03/25 00:47:19;;;;;;;0.90;0.50;;;;;;;7.17;74.67;92095.28;521383;28;872;-74
2024/03/25 00:47:35;;;;;;;1.00;0.60;;;;;;;7.10;74.66;92090.56;521553;28;1050;-74
2024/03/25 00:47:51;;;;;;;0.65;0.60;;;;;;;7.04;74.77;92073.59;521533;28;1720;-73
2024/03/25 00:48:06;;;;;;;0.50;0.50;;;;;;;7.21;74.80;92090.13;521667;28;840;-73
2024/03/25 00:48:23;;;;;;;0.50;0.50;;;;;;;7.22;75.05;92097.78;521634;28;777;-73
2024/03/25 00:48:38;;;;;;;0.60;0.60;;;;;;;7.24;75.07;92091.72;521588;28;895;-74
2024/03/25 00:48:54;;;;;;;0.50;0.50;;;;;;;7.26;75.23;92100.13;521079;28;753;-74
2024/03/25 00:49:10;;;;;;;0.40;0.40;;;;;;;7.24;75.83;92100.69;519811;28;910;-74
2024/03/25 00:49:26;;;;;;;0.43;0.43;;;;;;;7.03;75.98;92067.38;519757;28;1093;-73
2024/03/25 00:49:41;;;;;;;0.50;0.50;;;;;;;7.27;75.99;92101.59;519769;28;859;-74
2024/03/25 00:49:56;;;;;;;0.60;0.50;;;;;;;7.28;75.90;92092.78;519654;28;788;-73
2024/03/25 00:50:12;;;;;;;0.50;0.50;;;;;;;7.30;75.98;92097.72;519730;28;931;-74
2024/03/25 00:50:27;;;;;;;0.60;0.53;;;;;;;7.31;75.90;92097.19;519802;28;760;-73
2024/03/25 00:50:43;;;;;;;0.70;0.60;;;;;;;7.35;76.02;92091.28;519692;28;808;-73
2024/03/25 00:50:58;;;;;;;0.50;0.50;;;;;;;7.37;76.07;92094.19;519805;28;832;-73
2024/03/25 00:51:14;;;;;;;0.50;0.50;;;;;;;7.37;76.06;92092.19;519756;28;777;-73
2024/03/25 00:51:29;;;;;;;0.60;0.60;;;;;;;7.33;76.22;92097.34;519707;28;822;-74
2024/03/25 00:51:44;;;;;;;0.80;0.70;;;;;;;7.34;76.45;92103.56;519529;28;796;-74
2024/03/25 00:52:00;;;;;;;1.50;0.60;;;;;;;7.35;76.43;92103.00;519668;28;851;-73
2024/03/25 00:52:16;;;;;;;1.27;0.60;;;;;;;7.38;76.52;92099.16;519584;28;852;-73
2024/03/25 00:52:31;;;;;;;0.57;0.57;;;;;;;7.40;76.40;92102.06;519661;28;1060;-73
2024/03/25 00:52:47;;;;;;;0.53;0.50;;;;;;;7.42;76.46;92102.22;519555;28;789;-73
2024/03/25 00:53:02;;;;;;;1.10;0.50;;;;;;;7.43;76.41;92100.91;519560;28;749;-73
2024/03/25 00:53:18;;;;;;;0.90;0.53;;;;;;;7.46;76.53;92102.56;519634;28;836;-73
2024/03/25 00:53:33;;;;;;;0.60;0.60;;;;;;;7.49;76.41;92100.72;519740;28;836;-73
2024/03/25 00:53:48;;;;;;;0.60;0.50;;;;;;;7.51;76.52;92101.59;519792;28;772;-73
2024/03/25 00:54:04;;;;;;;1.70;0.60;;;;;;;7.33;76.21;92078.13;519760;28;797;-73
2024/03/25 00:54:19;;;;;;;1.60;0.60;;;;;;;7.56;76.29;92099.91;519728;28;792;-73
2024/03/25 00:54:35;;;;;;;0.52;0.52;;;;;;;7.57;76.30;92101.38;519704;28;814;-73
2024/03/25 00:54:50;;;;;;;1.47;0.60;;;;;;;7.58;76.00;92100.78;519679;28;827;-73
2024/03/25 00:55:08;;;;;;;4.63;0.70;;;;;;;7.59;76.13;92102.25;519733;28;836;-73
2024/03/25 00:55:24;;;;;;;3.08;0.80;;;;;;;7.59;76.01;92102.25;519781;28;852;-73
2024/03/25 00:55:40;;;;;;;2.33;0.73;;;;;;;7.50;75.99;92082.94;519686;28;911;-73
2024/03/25 00:55:56;;;;;;;0.90;0.60;;;;;;;7.62;76.01;92097.69;519770;28;860;-73
2024/03/25 00:56:11;;;;;;;1.58;0.68;;;;;;;7.64;75.94;92097.84;519676;28;856;-73
2024/03/25 00:56:27;;;;;;;1.27;0.70;;;;;;;7.67;75.73;92093.25;519619;28;790;-73
2024/03/25 00:56:44;;;;;;;0.70;0.70;;;;;;;7.69;75.64;92098.91;519610;28;915;-73
2024/03/25 00:56:59;;;;;;;0.60;0.60;;;;;;;7.71;75.50;92090.81;521556;28;1188;-73
2024/03/25 00:57:15;;;;;;;0.40;0.40;;;;;;;7.72;75.51;92100.50;521654;28;777;-73
2024/03/25 00:57:31;;;;;;;0.90;0.57;;;;;;;7.72;75.36;92097.75;521689;28;918;-73
2024/03/25 00:57:46;;;;;;;0.98;0.70;;;;;;;7.72;75.32;92093.00;521578;28;803;-74
2024/03/25 00:58:02;;;;;;;0.70;0.70;;;;;;;7.74;75.11;92092.44;522366;28;860;-73
2024/03/25 00:58:18;;;;;;;0.70;0.68;;;;;;;7.75;75.04;92097.38;523513;28;905;-74
2024/03/25 00:58:33;;;;;;;0.60;0.60;;;;;;;7.76;74.92;92090.56;523602;28;796;-74
2024/03/25 00:58:49;;;;;;;0.50;0.50;;;;;;;7.78;74.93;92090.00;522891;28;846;-74
2024/03/25 00:59:05;;;;;;;0.60;0.60;;;;;;;7.79;74.82;92094.97;521607;28;831;-74
2024/03/25 00:59:21;;;;;;;0.70;0.70;;;;;;;7.80;74.63;92096.41;521747;28;878;-74
2024/03/25 00:59:36;;;;;;;1.90;0.60;;;;;;;7.82;74.40;92090.34;521535;28;871;-73
2024/03/25 00:59:52;;;;;;;1.77;0.63;;;;;;;7.83;74.30;92086.31;521658;28;732;-74
2024/03/25 01:00:08;;;;;;;0.70;0.70;;;;;;;7.84;74.17;92076.78;521621;28;793;-74
2024/03/25 01:00:23;;;;;;;0.55;0.55;;;;;;;7.86;74.09;92085.91;521773;28;828;-74
2024/03/25 01:00:39;;;;;;;0.50;0.50;;;;;;;7.88;74.01;92085.34;521589;28;899;-74
2024/03/25 01:00:55;;;;;;;0.50;0.50;;;;;;;7.88;73.95;92077.84;521636;28;885;-74
2024/03/25 01:01:11;;;;;;;0.60;0.60;;;;;;;7.88;73.86;92071.63;521642;28;926;-74
2024/03/25 01:01:27;;;;;;;0.70;0.60;;;;;;;7.88;73.77;92080.59;521646;28;840;-74
2024/03/25 01:01:42;;;;;;;1.00;0.70;;;;;;;7.90;73.61;92077.28;521608;28;870;-74
2024/03/25 01:01:58;;;;;;;0.80;0.60;;;;;;;7.90;73.51;92072.50;521690;28;785;-74
2024/03/25 01:02:13;;;;;;;0.60;0.60;;;;;;;7.90;73.52;92075.25;521610;28;787;-74
2024/03/25 01:02:28;;;;;;;0.60;0.60;;;;;;;7.90;73.38;92072.50;521579;28;808;-74
2024/03/25 01:02:44;;;;;;;0.67;0.67;;;;;;;7.89;73.43;92076.53;521462;28;1997;-74
2024/03/25 01:02:59;;;;;;;0.73;0.73;;;;;;;7.90;73.53;92077.28;521724;28;891;-73
2024/03/25 01:03:15;;;;;;;0.53;0.53;;;;;;;7.90;73.37;92069.03;521579;28;749;-74
2024/03/25 01:03:30;;;;;;;0.50;0.50;;;;;;;7.91;73.34;92073.94;521624;28;840;-74
2024/03/25 01:03:46;;;;;;;0.60;0.60;;;;;;;7.91;73.21;92075.97;521635;28;765;-74
2024/03/25 01:04:02;;;;;;;0.83;0.70;;;;;;;7.91;73.26;92067.72;521609;28;891;-74
2024/03/25 01:04:17;;;;;;;0.63;0.57;;;;;;;7.93;73.28;92073.38;521613;28;867;-74
2024/03/25 01:04:33;;;;;;;0.60;0.47;;;;;;;7.94;73.41;92077.59;521621;28;812;-74
2024/03/25 01:04:48;;;;;;;0.70;0.55;;;;;;;7.92;73.02;92063.69;521615;28;845;-73
2024/03/25 01:05:05;;;;;;;0.57;0.57;;;;;;;7.88;72.81;92072.34;521598;28;784;-74
2024/03/25 01:05:20;;;;;;;0.68;0.60;;;;;;;7.89;73.02;92073.78;521649;28;836;-73
2024/03/25 01:05:36;;;;;;;1.20;0.60;;;;;;;7.90;73.03;92078.00;521468;28;931;-73
2024/03/25 01:05:51;;;;;;;0.90;0.50;;;;;;;7.92;73.12;92071.94;521453;28;844;-74
2024/03/25 01:06:06;;;;;;;0.40;0.40;;;;;;;7.93;73.06;92074.09;521460;28;1026;-73
2024/03/25 01:06:22;;;;;;;0.57;0.50;;;;;;;7.95;73.03;92079.06;521528;28;818;-74
2024/03/25 01:06:37;;;;;;;0.50;0.50;;;;;;;7.95;73.02;92079.75;521362;28;839;-73
2024/03/25 01:06:53;;;;;;;0.40;0.40;;;;;;;7.97;72.96;92081.97;521428;28;764;-73
2024/03/25 01:07:09;;;;;;;0.40;0.40;;;;;;;7.99;72.83;92082.84;521550;28;895;-73
2024/03/25 01:07:24;;;;;;;0.40;0.40;;;;;;;8.03;72.80;92082.44;521552;28;863;-74
2024/03/25 01:07:40;;;;;;;0.40;0.40;;;;;;;8.03;72.42;92076.94;521584;28;934;-73
2024/03/25 01:07:55;;;;;;;0.30;0.30;;;;;;;8.02;72.21;92076.22;521567;28;788;-73
2024/03/25 01:08:13;;;;;;;0.30;0.30;;;;;;;7.94;71.95;92078.31;521662;28;855;-73
2024/03/25 01:08:29;;;;;;;0.40;0.40;;;;;;;7.93;72.04;92073.38;521645;28;939;-73
2024/03/25 01:08:45;;;;;;;0.50;0.50;;;;;;;7.92;72.00;92077.44;521607;28;893;-74
2024/03/25 01:09:00;;;;;;;0.50;0.50;;;;;;;7.91;72.13;92075.97;521683;28;852;-73
2024/03/25 01:09:16;;;;;;;0.43;0.43;;;;;;;7.92;72.35;92077.44;521655;28;843;-74
2024/03/25 01:09:31;;;;;;;0.53;0.50;;;;;;;7.92;72.36;92072.66;521605;28;801;-73
2024/03/25 01:09:47;;;;;;;0.80;0.60;;;;;;;7.93;72.49;92074.09;521580;28;888;-74
2024/03/25 01:10:02;;;;;;;0.67;0.60;;;;;;;7.94;72.20;92081.06;521601;28;788;-73
2024/03/25 01:10:18;;;;;;;0.60;0.60;;;;;;;7.93;72.28;92071.38;521678;28;835;-74
2024/03/25 01:10:33;;;;;;;0.70;0.70;;;;;;;7.95;72.26;92070.81;521632;28;852;-73
2024/03/25 01:10:49;;;;;;;0.88;0.85;;;;;;;7.95;72.03;92077.03;521526;28;789;-74
2024/03/25 01:11:04;;;;;;;1.10;1.00;;;;;;;7.97;72.03;92076.47;521645;28;839;-73
2024/03/25 01:11:21;;;;;;;1.25;1.10;;;;;;;7.96;71.83;92064.75;521711;28;957;-74
2024/03/25 01:11:36;;;;;;;1.13;1.02;;;;;;;7.92;71.81;92071.94;521569;28;919;-73
2024/03/25 01:11:52;;;;;;;1.13;1.00;;;;;;;7.79;71.42;92077.75;521588;28;745;-74
2024/03/25 01:12:07;;;;;;;2.00;1.20;;;;;;;7.76;71.59;92073.34;521601;28;776;-73
2024/03/25 01:12:23;;;;;;;1.63;1.15;;;;;;;7.78;71.84;92074.25;521570;28;911;-73
2024/03/25 01:12:38;;;;;;;1.10;1.00;;;;;;;7.76;71.86;92076.09;521601;28;794;-74
2024/03/25 01:12:54;;;;;;;1.17;0.90;;;;;;;7.79;71.98;92080.47;521531;28;883;-74
2024/03/25 01:13:09;;;;;;;1.10;0.73;;;;;;;7.80;71.78;92082.66;521765;28;799;-74
2024/03/25 01:13:24;;;;;;;1.00;0.70;;;;;;;7.82;71.84;92080.06;521542;28;1030;-74
2024/03/25 01:13:41;;;;;;;0.90;0.60;;;;;;;7.84;71.70;92079.53;521656;28;832;-74
2024/03/25 01:13:56;;;;;;;0.50;0.50;;;;;;;7.83;71.29;92078.78;521773;28;934;-73
2024/03/25 01:14:12;;;;;;;0.43;0.43;;;;;;;7.85;71.03;92075.47;521811;28;804;-73
2024/03/25 01:14:27;;;;;;;0.50;0.50;;;;;;;7.87;70.83;92081.88;521816;28;832;-73
2024/03/25 01:14:43;;;;;;;0.50;0.45;;;;;;;7.87;70.65;92081.88;521749;28;859;-74
2024/03/25 01:14:58;;;;;;;0.40;0.40;;;;;;;7.89;70.60;92084.03;521802;28;784;-74
2024/03/25 01:15:14;;;;;;;0.45;0.45;;;;;;;7.90;70.34;92082.75;521783;28;931;-74
2024/03/25 01:15:29;;;;;;;0.60;0.60;;;;;;;7.90;70.50;92083.50;521804;28;860;-74
2024/03/25 01:15:44;;;;;;;0.60;0.60;;;;;;;7.90;70.45;92080.00;521703;28;843;-74
2024/03/25 01:16:00;;;;;;;0.93;0.53;;;;;;;7.91;70.43;92081.47;521789;28;832;-74
2024/03/25 01:16:15;;;;;;;1.53;0.60;;;;;;;7.87;70.42;92081.88;521789;28;823;-74
2024/03/25 01:16:32;;;;;;;0.95;0.55;;;;;;;7.88;70.50;92082.59;521666;28;876;-74
2024/03/25 01:16:47;;;;;;;0.50;0.50;;;;;;;7.73;70.17;92060.75;521583;28;903;-74
2024/03/25 01:17:03;;;;;;;0.50;0.50;;;;;;;7.83;69.87;92080.81;521721;28;808;-74
2024/03/25 01:17:19;;;;;;;0.40;0.40;;;;;;;7.82;69.91;92077.31;521607;28;852;-73